sensor_id;sensor_type;location;lat;lon;timestamp;P1;durP1;ratioP1;P2;durP2;ratioP2
7607;SDS011;3845;48.120;11.534;2022-08-21T00:01:40;1.40;;;1.30;;
7607;SDS011;3845;48.120;11.534;2022-08-21T00:04:06;2.60;;;1.30;;
7607;SDS011;3845;48.120;11.534;2022-08-21T00:06:32;1.23;;;1.13;;
7607;SDS011;3845;48.120;11.534;2022-08-21T00:08:59;1.80;;;1.20;;
7607;SDS011;3845;48.120;11.534;2022-08-21T00:11:24;1.77;;;1.17;;
7607;SDS011;3845;48.120;11.534;2022-08-21T00:13:51;1.27;;;1.17;;
7607;SDS011;3845;48.120;11.534;2022-08-21T00:16:17;1.47;;;1.20;;
7607;SDS011;3845;48.120;11.534;2022-08-21T00:18:42;2.70;;;1.10;;
7607;SDS011;3845;48.120;11.534;2022-08-21T00:21:08;1.47;;;1.23;;
7607;SDS011;3845;48.120;11.534;2022-08-21T00:23:33;1.60;;;1.10;;
7607;SDS011;3845;48.120;11.534;2022-08-21T00:26:00;1.20;;;1.10;;
7607;SDS011;3845;48.120;11.534;2022-08-21T00:28:25;1.37;;;1.27;;
7607;SDS011;3845;48.120;11.534;2022-08-21T00:30:50;1.50;;;1.40;;
7607;SDS011;3845;48.120;11.534;2022-08-21T00:33:16;1.30;;;1.20;;
7607;SDS011;3845;48.120;11.534;2022-08-21T00:35:41;1.33;;;1.23;;
7607;SDS011;3845;48.120;11.534;2022-08-21T00:38:08;1.20;;;1.10;;
7607;SDS011;3845;48.120;11.534;2022-08-21T00:43:05;1.40;;;1.20;;
7607;SDS011;3845;48.120;11.534;2022-08-21T00:45:32;1.20;;;1.10;;
7607;SDS011;3845;48.120;11.534;2022-08-21T00:47:58;1.30;;;1.20;;
7607;SDS011;3845;48.120;11.534;2022-08-21T00:50:26;1.30;;;1.10;;
7607;SDS011;3845;48.120;11.534;2022-08-21T00:52:54;1.40;;;1.00;;
7607;SDS011;3845;48.120;11.534;2022-08-21T00:55:20;1.30;;;1.20;;
7607;SDS011;3845;48.120;11.534;2022-08-21T00:57:47;2.30;;;1.20;;
7607;SDS011;3845;48.120;11.534;2022-08-21T01:00:17;1.20;;;1.10;;
7607;SDS011;3845;48.120;11.534;2022-08-21T01:02:44;1.50;;;1.40;;
7607;SDS011;3845;48.120;11.534;2022-08-21T01:05:11;1.40;;;1.30;;
7607;SDS011;3845;48.120;11.534;2022-08-21T01:07:37;2.27;;;1.20;;
7607;SDS011;3845;48.120;11.534;2022-08-21T01:10:03;1.20;;;1.10;;
7607;SDS011;3845;48.120;11.534;2022-08-21T01:12:30;1.87;;;1.20;;
7607;SDS011;3845;48.120;11.534;2022-08-21T01:14:56;1.50;;;1.27;;
7607;SDS011;3845;48.120;11.534;2022-08-21T01:17:22;1.30;;;1.20;;
7607;SDS011;3845;48.120;11.534;2022-08-21T01:19:48;1.20;;;1.10;;
7607;SDS011;3845;48.120;11.534;2022-08-21T01:22:13;1.30;;;1.20;;
7607;SDS011;3845;48.120;11.534;2022-08-21T01:24:38;1.53;;;1.10;;
7607;SDS011;3845;48.120;11.534;2022-08-21T01:27:04;1.30;;;1.10;;
7607;SDS011;3845;48.120;11.534;2022-08-21T01:31:58;0.97;;;0.97;;
7607;SDS011;3845;48.120;11.534;2022-08-21T01:34:23;1.20;;;1.10;;
7607;SDS011;3845;48.120;11.534;2022-08-21T01:36:49;1.10;;;1.00;;
7607;SDS011;3845;48.120;11.534;2022-08-21T01:39:14;1.50;;;1.10;;
7607;SDS011;3845;48.120;11.534;2022-08-21T01:41:40;1.13;;;1.03;;
7607;SDS011;3845;48.120;11.534;2022-08-21T01:44:05;1.30;;;1.10;;
7607;SDS011;3845;48.120;11.534;2022-08-21T01:46:31;1.20;;;1.10;;
7607;SDS011;3845;48.120;11.534;2022-08-21T01:48:57;1.07;;;0.97;;
7607;SDS011;3845;48.120;11.534;2022-08-21T01:51:22;1.53;;;1.10;;
7607;SDS011;3845;48.120;11.534;2022-08-21T01:53:47;1.50;;;1.17;;
7607;SDS011;3845;48.120;11.534;2022-08-21T01:56:14;1.23;;;1.13;;
7607;SDS011;3845;48.120;11.534;2022-08-21T01:58:40;1.20;;;1.10;;
7607;SDS011;3845;48.120;11.534;2022-08-21T02:01:06;1.20;;;1.10;;
7607;SDS011;3845;48.120;11.534;2022-08-21T02:03:32;1.60;;;1.20;;
7607;SDS011;3845;48.120;11.534;2022-08-21T02:05:57;1.23;;;1.13;;
7607;SDS011;3845;48.120;11.534;2022-08-21T02:08:23;1.27;;;1.13;;
7607;SDS011;3845;48.120;11.534;2022-08-21T02:10:48;1.30;;;1.20;;
7607;SDS011;3845;48.120;11.534;2022-08-21T02:13:15;1.20;;;1.10;;
7607;SDS011;3845;48.120;11.534;2022-08-21T02:15:41;1.20;;;1.10;;
7607;SDS011;3845;48.120;11.534;2022-08-21T02:18:06;1.30;;;1.10;;
7607;SDS011;3845;48.120;11.534;2022-08-21T02:20:39;1.10;;;1.00;;
7607;SDS011;3845;48.120;11.534;2022-08-21T02:23:07;1.20;;;1.00;;
7607;SDS011;3845;48.120;11.534;2022-08-21T02:25:34;1.17;;;1.07;;
7607;SDS011;3845;48.120;11.534;2022-08-21T02:28:02;1.17;;;1.07;;
7607;SDS011;3845;48.120;11.534;2022-08-21T02:30:37;1.10;;;1.00;;
7607;SDS011;3845;48.120;11.534;2022-08-21T02:33:06;1.63;;;1.10;;
7607;SDS011;3845;48.120;11.534;2022-08-21T02:35:32;1.20;;;1.00;;
7607;SDS011;3845;48.120;11.534;2022-08-21T02:37:59;1.20;;;0.90;;
7607;SDS011;3845;48.120;11.534;2022-08-21T02:40:27;2.63;;;1.07;;
7607;SDS011;3845;48.120;11.534;2022-08-21T02:42:55;1.20;;;1.10;;
7607;SDS011;3845;48.120;11.534;2022-08-21T02:45:21;1.30;;;1.10;;
7607;SDS011;3845;48.120;11.534;2022-08-21T02:47:57;1.10;;;1.00;;
7607;SDS011;3845;48.120;11.534;2022-08-21T02:50:25;1.30;;;1.20;;
7607;SDS011;3845;48.120;11.534;2022-08-21T02:52:52;1.30;;;1.20;;
7607;SDS011;3845;48.120;11.534;2022-08-21T02:55:19;1.50;;;1.10;;
7607;SDS011;3845;48.120;11.534;2022-08-21T02:57:45;1.20;;;1.10;;
7607;SDS011;3845;48.120;11.534;2022-08-21T03:00:11;1.10;;;1.00;;
7607;SDS011;3845;48.120;11.534;2022-08-21T03:02:38;2.40;;;1.10;;
7607;SDS011;3845;48.120;11.534;2022-08-21T03:05:04;1.70;;;1.60;;
7607;SDS011;3845;48.120;11.534;2022-08-21T03:07:31;2.07;;;1.60;;
7607;SDS011;3845;48.120;11.534;2022-08-21T03:09:56;1.60;;;1.50;;
7607;SDS011;3845;48.120;11.534;2022-08-21T03:12:21;1.50;;;1.40;;
7607;SDS011;3845;48.120;11.534;2022-08-21T03:14:47;2.43;;;1.30;;
7607;SDS011;3845;48.120;11.534;2022-08-21T03:17:12;1.40;;;1.30;;
7607;SDS011;3845;48.120;11.534;2022-08-21T03:19:38;1.80;;;1.30;;
7607;SDS011;3845;48.120;11.534;2022-08-21T03:22:04;1.20;;;1.10;;
7607;SDS011;3845;48.120;11.534;2022-08-21T03:24:30;1.20;;;1.10;;
7607;SDS011;3845;48.120;11.534;2022-08-21T03:26:55;1.20;;;1.10;;
7607;SDS011;3845;48.120;11.534;2022-08-21T03:29:21;1.20;;;1.10;;
7607;SDS011;3845;48.120;11.534;2022-08-21T03:31:46;1.20;;;1.10;;
7607;SDS011;3845;48.120;11.534;2022-08-21T03:34:12;1.20;;;1.10;;
7607;SDS011;3845;48.120;11.534;2022-08-21T03:36:37;2.33;;;1.20;;
7607;SDS011;3845;48.120;11.534;2022-08-21T03:39:03;1.20;;;1.10;;
7607;SDS011;3845;48.120;11.534;2022-08-21T03:41:28;1.53;;;1.10;;
7607;SDS011;3845;48.120;11.534;2022-08-21T03:43:53;1.40;;;1.30;;
7607;SDS011;3845;48.120;11.534;2022-08-21T03:46:19;1.53;;;1.20;;
7607;SDS011;3845;48.120;11.534;2022-08-21T03:48:45;2.50;;;1.10;;
7607;SDS011;3845;48.120;11.534;2022-08-21T03:51:10;1.27;;;1.17;;
7607;SDS011;3845;48.120;11.534;2022-08-21T03:53:35;1.30;;;1.20;;
7607;SDS011;3845;48.120;11.534;2022-08-21T03:56:01;1.20;;;1.10;;
7607;SDS011;3845;48.120;11.534;2022-08-21T03:58:27;1.20;;;1.10;;
7607;SDS011;3845;48.120;11.534;2022-08-21T04:00:54;1.33;;;1.20;;
7607;SDS011;3845;48.120;11.534;2022-08-21T04:03:24;1.30;;;1.20;;
7607;SDS011;3845;48.120;11.534;2022-08-21T04:05:50;1.20;;;1.10;;
7607;SDS011;3845;48.120;11.534;2022-08-21T04:08:16;1.43;;;1.30;;
7607;SDS011;3845;48.120;11.534;2022-08-21T04:10:44;2.10;;;1.17;;
7607;SDS011;3845;48.120;11.534;2022-08-21T04:13:10;2.03;;;1.20;;
7607;SDS011;3845;48.120;11.534;2022-08-21T04:15:35;1.60;;;1.20;;
7607;SDS011;3845;48.120;11.534;2022-08-21T04:18:01;1.40;;;1.20;;
7607;SDS011;3845;48.120;11.534;2022-08-21T04:20:27;1.20;;;1.10;;
7607;SDS011;3845;48.120;11.534;2022-08-21T04:22:52;1.30;;;1.20;;
7607;SDS011;3845;48.120;11.534;2022-08-21T04:25:19;1.67;;;1.30;;
7607;SDS011;3845;48.120;11.534;2022-08-21T04:27:45;1.60;;;1.20;;
7607;SDS011;3845;48.120;11.534;2022-08-21T04:30:11;1.30;;;1.20;;
7607;SDS011;3845;48.120;11.534;2022-08-21T04:32:38;1.20;;;1.10;;
7607;SDS011;3845;48.120;11.534;2022-08-21T04:35:08;2.40;;;1.20;;
7607;SDS011;3845;48.120;11.534;2022-08-21T04:37:34;2.07;;;1.40;;
7607;SDS011;3845;48.120;11.534;2022-08-21T04:40:00;1.40;;;1.23;;
7607;SDS011;3845;48.120;11.534;2022-08-21T04:42:25;1.33;;;1.20;;
7607;SDS011;3845;48.120;11.534;2022-08-21T04:44:52;1.30;;;1.20;;
7607;SDS011;3845;48.120;11.534;2022-08-21T04:47:19;1.50;;;1.37;;
7607;SDS011;3845;48.120;11.534;2022-08-21T04:49:44;1.50;;;1.30;;
7607;SDS011;3845;48.120;11.534;2022-08-21T04:52:10;1.77;;;1.20;;
7607;SDS011;3845;48.120;11.534;2022-08-21T04:54:36;1.93;;;1.20;;
7607;SDS011;3845;48.120;11.534;2022-08-21T04:57:04;1.40;;;1.30;;
7607;SDS011;3845;48.120;11.534;2022-08-21T04:59:36;1.60;;;1.30;;
7607;SDS011;3845;48.120;11.534;2022-08-21T05:02:06;1.30;;;1.20;;
7607;SDS011;3845;48.120;11.534;2022-08-21T05:04:32;1.50;;;1.40;;
7607;SDS011;3845;48.120;11.534;2022-08-21T05:06:59;1.23;;;1.13;;
7607;SDS011;3845;48.120;11.534;2022-08-21T05:09:27;1.30;;;1.20;;
7607;SDS011;3845;48.120;11.534;2022-08-21T05:11:53;1.20;;;1.10;;
7607;SDS011;3845;48.120;11.534;2022-08-21T05:14:19;1.37;;;1.27;;
7607;SDS011;3845;48.120;11.534;2022-08-21T05:16:45;1.20;;;1.10;;
7607;SDS011;3845;48.120;11.534;2022-08-21T05:19:10;1.30;;;1.20;;
7607;SDS011;3845;48.120;11.534;2022-08-21T05:21:39;1.40;;;1.30;;
7607;SDS011;3845;48.120;11.534;2022-08-21T05:24:06;2.47;;;1.20;;
7607;SDS011;3845;48.120;11.534;2022-08-21T05:26:31;1.67;;;1.23;;
7607;SDS011;3845;48.120;11.534;2022-08-21T05:28:56;1.27;;;1.17;;
7607;SDS011;3845;48.120;11.534;2022-08-21T05:31:22;2.23;;;1.30;;
7607;SDS011;3845;48.120;11.534;2022-08-21T05:33:47;1.20;;;1.10;;
7607;SDS011;3845;48.120;11.534;2022-08-21T05:36:13;1.30;;;1.20;;
7607;SDS011;3845;48.120;11.534;2022-08-21T05:38:38;2.00;;;1.80;;
7607;SDS011;3845;48.120;11.534;2022-08-21T05:41:03;5.93;;;4.33;;
7607;SDS011;3845;48.120;11.534;2022-08-21T05:43:29;3.17;;;2.87;;
7607;SDS011;3845;48.120;11.534;2022-08-21T05:45:54;2.30;;;2.10;;
7607;SDS011;3845;48.120;11.534;2022-08-21T05:48:20;2.50;;;2.30;;
7607;SDS011;3845;48.120;11.534;2022-08-21T05:50:48;2.37;;;1.80;;
7607;SDS011;3845;48.120;11.534;2022-08-21T05:53:15;1.70;;;1.60;;
7607;SDS011;3845;48.120;11.534;2022-08-21T05:55:42;2.00;;;1.60;;
7607;SDS011;3845;48.120;11.534;2022-08-21T05:58:08;1.70;;;1.60;;
7607;SDS011;3845;48.120;11.534;2022-08-21T06:00:33;1.70;;;1.40;;
7607;SDS011;3845;48.120;11.534;2022-08-21T06:02:59;1.37;;;1.27;;
7607;SDS011;3845;48.120;11.534;2022-08-21T06:05:25;1.67;;;1.37;;
7607;SDS011;3845;48.120;11.534;2022-08-21T06:07:50;1.80;;;1.50;;
7607;SDS011;3845;48.120;11.534;2022-08-21T06:10:16;1.80;;;1.40;;
7607;SDS011;3845;48.120;11.534;2022-08-21T06:12:41;2.93;;;2.30;;
7607;SDS011;3845;48.120;11.534;2022-08-21T06:15:07;2.70;;;2.50;;
7607;SDS011;3845;48.120;11.534;2022-08-21T06:17:32;2.83;;;2.40;;
7607;SDS011;3845;48.120;11.534;2022-08-21T06:19:57;3.50;;;2.20;;
7607;SDS011;3845;48.120;11.534;2022-08-21T06:22:23;2.23;;;2.00;;
7607;SDS011;3845;48.120;11.534;2022-08-21T06:24:48;2.40;;;2.20;;
7607;SDS011;3845;48.120;11.534;2022-08-21T06:27:14;2.70;;;2.50;;
7607;SDS011;3845;48.120;11.534;2022-08-21T06:29:40;3.43;;;2.90;;
7607;SDS011;3845;48.120;11.534;2022-08-21T06:32:05;2.83;;;2.40;;
7607;SDS011;3845;48.120;11.534;2022-08-21T06:34:37;2.60;;;2.00;;
7607;SDS011;3845;48.120;11.534;2022-08-21T06:37:03;2.10;;;1.73;;
7607;SDS011;3845;48.120;11.534;2022-08-21T06:39:29;1.87;;;1.60;;
7607;SDS011;3845;48.120;11.534;2022-08-21T06:41:54;1.50;;;1.40;;
7607;SDS011;3845;48.120;11.534;2022-08-21T06:44:20;1.57;;;1.40;;
7607;SDS011;3845;48.120;11.534;2022-08-21T06:46:45;1.77;;;1.50;;
7607;SDS011;3845;48.120;11.534;2022-08-21T06:49:10;1.43;;;1.23;;
7607;SDS011;3845;48.120;11.534;2022-08-21T06:51:36;1.60;;;1.50;;
7607;SDS011;3845;48.120;11.534;2022-08-21T06:54:01;1.53;;;1.30;;
7607;SDS011;3845;48.120;11.534;2022-08-21T06:56:26;2.00;;;1.57;;
7607;SDS011;3845;48.120;11.534;2022-08-21T06:58:52;2.73;;;1.90;;
7607;SDS011;3845;48.120;11.534;2022-08-21T07:01:17;1.90;;;1.70;;
7607;SDS011;3845;48.120;11.534;2022-08-21T07:03:45;1.97;;;1.80;;
7607;SDS011;3845;48.120;11.534;2022-08-21T07:06:10;2.80;;;1.70;;
7607;SDS011;3845;48.120;11.534;2022-08-21T07:08:36;2.37;;;1.70;;
7607;SDS011;3845;48.120;11.534;2022-08-21T07:11:03;3.50;;;2.00;;
7607;SDS011;3845;48.120;11.534;2022-08-21T07:13:30;2.63;;;1.70;;
7607;SDS011;3845;48.120;11.534;2022-08-21T07:15:55;5.07;;;4.20;;
7607;SDS011;3845;48.120;11.534;2022-08-21T07:18:21;8.73;;;7.53;;
7607;SDS011;3845;48.120;11.534;2022-08-21T07:20:46;10.43;;;8.17;;
7607;SDS011;3845;48.120;11.534;2022-08-21T07:23:13;5.20;;;3.53;;
7607;SDS011;3845;48.120;11.534;2022-08-21T07:25:43;2.63;;;2.33;;
7607;SDS011;3845;48.120;11.534;2022-08-21T07:28:09;2.73;;;2.40;;
7607;SDS011;3845;48.120;11.534;2022-08-21T07:30:34;2.67;;;2.20;;
7607;SDS011;3845;48.120;11.534;2022-08-21T07:32:59;2.50;;;2.30;;
7607;SDS011;3845;48.120;11.534;2022-08-21T07:35:25;3.33;;;2.00;;
7607;SDS011;3845;48.120;11.534;2022-08-21T07:37:51;2.40;;;2.20;;
7607;SDS011;3845;48.120;11.534;2022-08-21T07:40:16;2.50;;;2.20;;
7607;SDS011;3845;48.120;11.534;2022-08-21T07:42:46;2.70;;;2.13;;
7607;SDS011;3845;48.120;11.534;2022-08-21T07:45:14;2.93;;;2.13;;
7607;SDS011;3845;48.120;11.534;2022-08-21T07:47:40;3.37;;;2.70;;
7607;SDS011;3845;48.120;11.534;2022-08-21T07:50:06;5.43;;;3.67;;
7607;SDS011;3845;48.120;11.534;2022-08-21T07:52:32;5.03;;;4.53;;
7607;SDS011;3845;48.120;11.534;2022-08-21T07:54:58;5.70;;;5.10;;
7607;SDS011;3845;48.120;11.534;2022-08-21T07:57:24;4.67;;;4.00;;
7607;SDS011;3845;48.120;11.534;2022-08-21T07:59:49;5.13;;;3.37;;
7607;SDS011;3845;48.120;11.534;2022-08-21T08:02:22;4.27;;;3.27;;
7607;SDS011;3845;48.120;11.534;2022-08-21T08:04:49;4.03;;;3.43;;
7607;SDS011;3845;48.120;11.534;2022-08-21T08:07:14;5.10;;;3.20;;
7607;SDS011;3845;48.120;11.534;2022-08-21T08:09:39;4.30;;;3.50;;
7607;SDS011;3845;48.120;11.534;2022-08-21T08:12:05;4.80;;;4.10;;
7607;SDS011;3845;48.120;11.534;2022-08-21T08:14:30;5.37;;;3.70;;
7607;SDS011;3845;48.120;11.534;2022-08-21T08:16:56;4.03;;;3.63;;
7607;SDS011;3845;48.120;11.534;2022-08-21T08:19:21;5.50;;;4.80;;
7607;SDS011;3845;48.120;11.534;2022-08-21T08:21:46;7.43;;;6.17;;
7607;SDS011;3845;48.120;11.534;2022-08-21T08:24:12;9.33;;;7.60;;
7607;SDS011;3845;48.120;11.534;2022-08-21T08:26:37;6.17;;;5.57;;
7607;SDS011;3845;48.120;11.534;2022-08-21T08:29:02;5.97;;;4.10;;
7607;SDS011;3845;48.120;11.534;2022-08-21T08:31:28;4.27;;;3.63;;
7607;SDS011;3845;48.120;11.534;2022-08-21T08:33:53;4.60;;;3.33;;
7607;SDS011;3845;48.120;11.534;2022-08-21T08:36:18;3.63;;;3.20;;
7607;SDS011;3845;48.120;11.534;2022-08-21T08:38:44;3.23;;;2.93;;
7607;SDS011;3845;48.120;11.534;2022-08-21T08:41:19;3.47;;;2.90;;
7607;SDS011;3845;48.120;11.534;2022-08-21T08:43:51;8.33;;;7.50;;
7607;SDS011;3845;48.120;11.534;2022-08-21T08:46:20;7.63;;;6.83;;
7607;SDS011;3845;48.120;11.534;2022-08-21T08:48:58;8.57;;;7.67;;
7607;SDS011;3845;48.120;11.534;2022-08-21T08:51:35;5.00;;;4.50;;
7607;SDS011;3845;48.120;11.534;2022-08-21T08:54:08;4.60;;;4.00;;
7607;SDS011;3845;48.120;11.534;2022-08-21T08:56:37;4.60;;;4.10;;
7607;SDS011;3845;48.120;11.534;2022-08-21T08:59:13;4.67;;;4.27;;
7607;SDS011;3845;48.120;11.534;2022-08-21T09:01:41;4.03;;;3.63;;
7607;SDS011;3845;48.120;11.534;2022-08-21T09:04:07;3.40;;;3.10;;
7607;SDS011;3845;48.120;11.534;2022-08-21T09:09:25;4.10;;;3.70;;
7607;SDS011;3845;48.120;11.534;2022-08-21T09:22:30;3.60;;;3.30;;
7607;SDS011;3845;48.120;11.534;2022-08-21T09:25:30;3.63;;;3.27;;
7607;SDS011;3845;48.120;11.534;2022-08-21T09:27:57;4.20;;;3.00;;
7607;SDS011;3845;48.120;11.534;2022-08-21T09:30:25;3.13;;;2.90;;
7607;SDS011;3845;48.120;11.534;2022-08-21T09:32:53;3.70;;;3.17;;
7607;SDS011;3845;48.120;11.534;2022-08-21T09:35:20;4.73;;;3.40;;
7607;SDS011;3845;48.120;11.534;2022-08-21T09:40:26;3.23;;;2.97;;
7607;SDS011;3845;48.120;11.534;2022-08-21T09:45:36;4.20;;;3.80;;
7607;SDS011;3845;48.120;11.534;2022-08-21T09:48:38;4.07;;;3.50;;
7607;SDS011;3845;48.120;11.534;2022-08-21T09:51:05;3.10;;;2.90;;
7607;SDS011;3845;48.120;11.534;2022-08-21T09:53:31;4.73;;;3.20;;
7607;SDS011;3845;48.120;11.534;2022-08-21T09:55:58;2.80;;;2.60;;
7607;SDS011;3845;48.120;11.534;2022-08-21T09:58:46;3.17;;;2.60;;
7607;SDS011;3845;48.120;11.534;2022-08-21T10:01:14;3.97;;;3.30;;
7607;SDS011;3845;48.120;11.534;2022-08-21T10:03:41;4.23;;;3.00;;
7607;SDS011;3845;48.120;11.534;2022-08-21T10:06:07;5.63;;;5.07;;
7607;SDS011;3845;48.120;11.534;2022-08-21T10:08:35;5.40;;;4.90;;
7607;SDS011;3845;48.120;11.534;2022-08-21T10:11:07;6.77;;;5.13;;
7607;SDS011;3845;48.120;11.534;2022-08-21T10:16:33;4.10;;;3.37;;
7607;SDS011;3845;48.120;11.534;2022-08-21T10:24:39;4.87;;;2.70;;
7607;SDS011;3845;48.120;11.534;2022-08-21T10:35:27;2.30;;;2.10;;
7607;SDS011;3845;48.120;11.534;2022-08-21T10:40:56;2.70;;;2.50;;
7607;SDS011;3845;48.120;11.534;2022-08-21T10:55:14;3.17;;;2.87;;
7607;SDS011;3845;48.120;11.534;2022-08-21T11:00:28;4.00;;;2.80;;
7607;SDS011;3845;48.120;11.534;2022-08-21T11:02:58;3.80;;;3.30;;
7607;SDS011;3845;48.120;11.534;2022-08-21T11:05:38;3.53;;;3.23;;
7607;SDS011;3845;48.120;11.534;2022-08-21T11:08:09;3.67;;;2.60;;
7607;SDS011;3845;48.120;11.534;2022-08-21T11:10:46;2.90;;;2.70;;
7607;SDS011;3845;48.120;11.534;2022-08-21T11:13:17;2.70;;;2.50;;
7607;SDS011;3845;48.120;11.534;2022-08-21T11:23:45;3.50;;;3.20;;
7607;SDS011;3845;48.120;11.534;2022-08-21T11:26:22;3.67;;;3.37;;
7607;SDS011;3845;48.120;11.534;2022-08-21T11:37:24;2.80;;;2.60;;
7607;SDS011;3845;48.120;11.534;2022-08-21T11:40:10;3.23;;;2.70;;
7607;SDS011;3845;48.120;11.534;2022-08-21T11:45:28;3.30;;;2.60;;
7607;SDS011;3845;48.120;11.534;2022-08-21T11:50:32;3.63;;;2.50;;
7607;SDS011;3845;48.120;11.534;2022-08-21T11:53:17;2.50;;;2.30;;
7607;SDS011;3845;48.120;11.534;2022-08-21T11:55:52;2.63;;;2.20;;
7607;SDS011;3845;48.120;11.534;2022-08-21T11:58:30;2.97;;;2.63;;
7607;SDS011;3845;48.120;11.534;2022-08-21T12:00:59;3.93;;;2.63;;
7607;SDS011;3845;48.120;11.534;2022-08-21T12:03:29;3.20;;;2.90;;
7607;SDS011;3845;48.120;11.534;2022-08-21T12:06:00;2.80;;;2.60;;
7607;SDS011;3845;48.120;11.534;2022-08-21T12:08:32;2.50;;;2.30;;
7607;SDS011;3845;48.120;11.534;2022-08-21T12:21:53;2.70;;;2.50;;
7607;SDS011;3845;48.120;11.534;2022-08-21T12:29:46;4.60;;;2.60;;
7607;SDS011;3845;48.120;11.534;2022-08-21T12:34:39;5.13;;;4.60;;
7607;SDS011;3845;48.120;11.534;2022-08-21T12:37:09;3.20;;;2.87;;
7607;SDS011;3845;48.120;11.534;2022-08-21T12:39:42;3.37;;;2.60;;
7607;SDS011;3845;48.120;11.534;2022-08-21T12:42:19;2.60;;;2.40;;
7607;SDS011;3845;48.120;11.534;2022-08-21T12:47:27;3.50;;;2.50;;
7607;SDS011;3845;48.120;11.534;2022-08-21T12:49:59;2.30;;;2.07;;
7607;SDS011;3845;48.120;11.534;2022-08-21T12:52:41;2.77;;;2.47;;
7607;SDS011;3845;48.120;11.534;2022-08-21T12:55:13;2.57;;;2.13;;
7607;SDS011;3845;48.120;11.534;2022-08-21T12:57:41;2.60;;;2.40;;
7607;SDS011;3845;48.120;11.534;2022-08-21T13:00:08;2.57;;;2.37;;
7607;SDS011;3845;48.120;11.534;2022-08-21T13:02:48;3.13;;;2.07;;
7607;SDS011;3845;48.120;11.534;2022-08-21T13:05:16;2.30;;;2.10;;
7607;SDS011;3845;48.120;11.534;2022-08-21T13:07:47;5.00;;;2.33;;
7607;SDS011;3845;48.120;11.534;2022-08-21T13:10:16;2.23;;;2.03;;
7607;SDS011;3845;48.120;11.534;2022-08-21T13:12:44;2.53;;;2.30;;
7607;SDS011;3845;48.120;11.534;2022-08-21T13:15:10;3.13;;;2.70;;
7607;SDS011;3845;48.120;11.534;2022-08-21T13:17:38;3.40;;;2.80;;
7607;SDS011;3845;48.120;11.534;2022-08-21T13:20:07;2.60;;;2.40;;
7607;SDS011;3845;48.120;11.534;2022-08-21T13:22:40;2.40;;;2.20;;
7607;SDS011;3845;48.120;11.534;2022-08-21T13:25:09;2.63;;;2.17;;
7607;SDS011;3845;48.120;11.534;2022-08-21T13:27:36;3.97;;;2.83;;
7607;SDS011;3845;48.120;11.534;2022-08-21T13:32:30;2.60;;;2.40;;
7607;SDS011;3845;48.120;11.534;2022-08-21T13:34:57;2.50;;;2.30;;
7607;SDS011;3845;48.120;11.534;2022-08-21T13:37:22;2.60;;;2.40;;
7607;SDS011;3845;48.120;11.534;2022-08-21T13:39:51;2.87;;;2.30;;
7607;SDS011;3845;48.120;11.534;2022-08-21T13:42:16;2.27;;;2.07;;
7607;SDS011;3845;48.120;11.534;2022-08-21T13:44:43;3.13;;;1.83;;
7607;SDS011;3845;48.120;11.534;2022-08-21T13:47:12;2.33;;;2.13;;
7607;SDS011;3845;48.120;11.534;2022-08-21T13:49:39;2.03;;;1.90;;
7607;SDS011;3845;48.120;11.534;2022-08-21T13:52:15;2.10;;;1.90;;
7607;SDS011;3845;48.120;11.534;2022-08-21T13:54:52;2.77;;;2.20;;
7607;SDS011;3845;48.120;11.534;2022-08-21T13:57:19;2.20;;;2.00;;
7607;SDS011;3845;48.120;11.534;2022-08-21T13:59:49;2.50;;;2.30;;
7607;SDS011;3845;48.120;11.534;2022-08-21T14:02:19;2.47;;;2.27;;
7607;SDS011;3845;48.120;11.534;2022-08-21T14:04:52;2.57;;;2.30;;
7607;SDS011;3845;48.120;11.534;2022-08-21T14:07:29;2.50;;;2.30;;
7607;SDS011;3845;48.120;11.534;2022-08-21T14:09:59;3.00;;;2.40;;
7607;SDS011;3845;48.120;11.534;2022-08-21T14:12:28;2.73;;;2.40;;
7607;SDS011;3845;48.120;11.534;2022-08-21T14:14:55;2.50;;;2.30;;
7607;SDS011;3845;48.120;11.534;2022-08-21T14:17:29;3.00;;;2.60;;
7607;SDS011;3845;48.120;11.534;2022-08-21T14:19:57;3.00;;;2.60;;
7607;SDS011;3845;48.120;11.534;2022-08-21T14:25:01;4.60;;;2.63;;
7607;SDS011;3845;48.120;11.534;2022-08-21T14:27:27;2.70;;;2.50;;
7607;SDS011;3845;48.120;11.534;2022-08-21T14:29:57;2.70;;;2.50;;
7607;SDS011;3845;48.120;11.534;2022-08-21T14:32:25;3.10;;;2.33;;
7607;SDS011;3845;48.120;11.534;2022-08-21T14:34:55;2.80;;;2.40;;
7607;SDS011;3845;48.120;11.534;2022-08-21T14:37:21;3.90;;;2.53;;
7607;SDS011;3845;48.120;11.534;2022-08-21T14:39:47;3.63;;;2.30;;
7607;SDS011;3845;48.120;11.534;2022-08-21T14:42:12;2.53;;;2.27;;
7607;SDS011;3845;48.120;11.534;2022-08-21T14:44:38;2.90;;;2.70;;
7607;SDS011;3845;48.120;11.534;2022-08-21T14:47:03;3.50;;;3.00;;
7607;SDS011;3845;48.120;11.534;2022-08-21T14:49:28;2.87;;;2.67;;
7607;SDS011;3845;48.120;11.534;2022-08-21T14:51:55;3.50;;;3.00;;
7607;SDS011;3845;48.120;11.534;2022-08-21T14:54:22;3.07;;;2.60;;
7607;SDS011;3845;48.120;11.534;2022-08-21T14:56:51;2.73;;;2.53;;
7607;SDS011;3845;48.120;11.534;2022-08-21T14:59:17;4.37;;;2.80;;
7607;SDS011;3845;48.120;11.534;2022-08-21T15:01:44;3.00;;;2.80;;
7607;SDS011;3845;48.120;11.534;2022-08-21T15:04:10;2.93;;;2.50;;
7607;SDS011;3845;48.120;11.534;2022-08-21T15:06:36;2.77;;;2.40;;
7607;SDS011;3845;48.120;11.534;2022-08-21T15:09:02;4.43;;;2.83;;
7607;SDS011;3845;48.120;11.534;2022-08-21T15:11:29;2.90;;;2.60;;
7607;SDS011;3845;48.120;11.534;2022-08-21T15:13:55;3.83;;;2.30;;
7607;SDS011;3845;48.120;11.534;2022-08-21T15:16:21;4.97;;;3.17;;
7607;SDS011;3845;48.120;11.534;2022-08-21T15:18:47;3.43;;;2.60;;
7607;SDS011;3845;48.120;11.534;2022-08-21T15:21:12;3.10;;;2.80;;
7607;SDS011;3845;48.120;11.534;2022-08-21T15:23:38;3.67;;;2.80;;
7607;SDS011;3845;48.120;11.534;2022-08-21T15:26:03;3.20;;;2.90;;
7607;SDS011;3845;48.120;11.534;2022-08-21T15:28:29;4.00;;;3.33;;
7607;SDS011;3845;48.120;11.534;2022-08-21T15:30:54;4.13;;;3.73;;
7607;SDS011;3845;48.120;11.534;2022-08-21T15:33:20;5.53;;;3.97;;
7607;SDS011;3845;48.120;11.534;2022-08-21T15:35:46;5.23;;;3.90;;
7607;SDS011;3845;48.120;11.534;2022-08-21T15:38:12;5.33;;;4.20;;
7607;SDS011;3845;48.120;11.534;2022-08-21T15:40:38;3.40;;;3.10;;
7607;SDS011;3845;48.120;11.534;2022-08-21T15:43:04;4.63;;;2.90;;
7607;SDS011;3845;48.120;11.534;2022-08-21T15:45:30;3.47;;;3.00;;
7607;SDS011;3845;48.120;11.534;2022-08-21T15:47:56;2.90;;;2.70;;
7607;SDS011;3845;48.120;11.534;2022-08-21T15:50:23;2.73;;;2.53;;
7607;SDS011;3845;48.120;11.534;2022-08-21T15:52:49;3.97;;;3.20;;
7607;SDS011;3845;48.120;11.534;2022-08-21T15:55:15;3.77;;;2.63;;
7607;SDS011;3845;48.120;11.534;2022-08-21T15:57:47;3.57;;;2.50;;
7607;SDS011;3845;48.120;11.534;2022-08-21T16:00:15;2.73;;;2.53;;
7607;SDS011;3845;48.120;11.534;2022-08-21T16:02:44;4.33;;;3.43;;
7607;SDS011;3845;48.120;11.534;2022-08-21T16:05:11;5.13;;;3.00;;
7607;SDS011;3845;48.120;11.534;2022-08-21T16:07:38;5.37;;;2.63;;
7607;SDS011;3845;48.120;11.534;2022-08-21T16:10:04;4.47;;;3.60;;
7607;SDS011;3845;48.120;11.534;2022-08-21T16:12:31;3.90;;;3.53;;
7607;SDS011;3845;48.120;11.534;2022-08-21T16:14:58;3.63;;;2.90;;
7607;SDS011;3845;48.120;11.534;2022-08-21T16:17:29;5.47;;;3.37;;
7607;SDS011;3845;48.120;11.534;2022-08-21T16:19:56;4.37;;;3.30;;
7607;SDS011;3845;48.120;11.534;2022-08-21T16:22:22;5.33;;;4.30;;
7607;SDS011;3845;48.120;11.534;2022-08-21T16:24:48;4.50;;;3.77;;
7607;SDS011;3845;48.120;11.534;2022-08-21T16:27:13;3.53;;;3.17;;
7607;SDS011;3845;48.120;11.534;2022-08-21T16:29:41;3.57;;;2.80;;
7607;SDS011;3845;48.120;11.534;2022-08-21T16:32:06;2.80;;;2.60;;
7607;SDS011;3845;48.120;11.534;2022-08-21T16:34:32;3.07;;;2.60;;
7607;SDS011;3845;48.120;11.534;2022-08-21T16:36:58;2.77;;;2.47;;
7607;SDS011;3845;48.120;11.534;2022-08-21T16:39:23;3.10;;;2.80;;
7607;SDS011;3845;48.120;11.534;2022-08-21T16:41:49;5.20;;;3.67;;
7607;SDS011;3845;48.120;11.534;2022-08-21T16:44:15;4.47;;;3.30;;
7607;SDS011;3845;48.120;11.534;2022-08-21T16:46:41;4.67;;;3.17;;
7607;SDS011;3845;48.120;11.534;2022-08-21T16:49:07;3.33;;;2.87;;